createdAt,value
2018-11-20T00:00:43.910Z,94614.63
2018-11-20T00:01:33.924Z,94616.98
2018-11-20T00:02:24.494Z,94618.18
2018-11-20T00:03:14.861Z,94622.34
2018-11-20T00:04:04.882Z,94623.36
2018-11-20T00:04:54.908Z,94621.18
2018-11-20T00:05:45.376Z,94617.19
2018-11-20T00:06:36.052Z,94612.59
2018-11-20T00:07:26.399Z,94609.41
2018-11-20T00:08:16.908Z,94605.17
2018-11-20T00:09:07.459Z,94604.69
2018-11-20T00:09:57.969Z,94607.02
2018-11-20T00:10:48.743Z,94607.08
2018-11-20T00:11:38.822Z,94607.92
2018-11-20T00:12:29.413Z,94604.69
2018-11-20T00:13:19.787Z,94604.50
2018-11-20T00:14:10.443Z,94601.52
2018-11-20T00:15:00.989Z,94604.24
2018-11-20T00:15:50.966Z,94604.52
2018-11-20T00:16:41.524Z,94609.02
2018-11-20T00:17:31.659Z,94609.21
2018-11-20T00:18:21.907Z,94616.92
2018-11-20T00:19:12.573Z,94618.20
2018-11-20T00:20:03.092Z,94623.20
2018-11-20T00:20:53.128Z,94628.25
2018-11-20T00:21:43.301Z,94625.51
2018-11-20T00:22:34.028Z,94621.25
2018-11-20T00:23:24.454Z,94624.16
2018-11-20T00:24:15.020Z,94620.69
2018-11-20T00:25:05.725Z,94617.34
2018-11-20T00:25:56.233Z,94622.01
2018-11-20T00:26:46.240Z,94618.09
2018-11-20T00:27:36.324Z,94622.73
2018-11-20T00:28:26.665Z,94619.19
2018-11-20T00:29:17.190Z,94615.75
2018-11-20T00:30:07.284Z,94614.72
2018-11-20T00:30:57.368Z,94609.69
2018-11-20T00:31:47.454Z,94609.63
2018-11-20T00:32:38.063Z,94613.47
2018-11-20T00:33:28.565Z,94606.96
2018-11-20T00:34:18.613Z,94603.00
2018-11-20T00:35:09.183Z,94596.25
2018-11-20T00:35:59.758Z,94591.67
2018-11-20T00:36:50.363Z,94590.16
2018-11-20T00:37:41.034Z,94592.06
2018-11-20T00:38:31.504Z,94595.75
2018-11-20T00:39:21.517Z,94590.17
2018-11-20T00:40:11.828Z,94587.40
2018-11-20T00:41:02.364Z,94585.00
2018-11-20T00:41:52.356Z,94579.84
2018-11-20T00:42:42.767Z,94580.33
2018-11-20T00:43:32.676Z,94576.22
2018-11-20T00:44:23.824Z,94577.14
2018-11-20T00:45:13.890Z,94575.99
2018-11-20T00:46:03.929Z,94569.97
2018-11-20T00:46:53.944Z,94573.51
2018-11-20T00:47:44.174Z,94570.09
2018-11-20T00:48:34.322Z,94566.43
2018-11-20T00:49:24.747Z,94566.77
2018-11-20T00:50:15.222Z,94564.93
2018-11-20T00:51:05.281Z,94562.59
2018-11-20T00:51:55.819Z,94566.59
2018-11-20T00:52:45.909Z,94565.12
2018-11-20T00:53:36.342Z,94561.28
2018-11-20T00:54:26.437Z,94565.12
2018-11-20T00:55:17.067Z,94569.27
2018-11-20T00:56:07.173Z,94572.34
2018-11-20T00:56:57.666Z,94575.11
2018-11-20T00:57:47.810Z,94576.14
2018-11-20T00:58:37.793Z,94579.55
2018-11-20T00:59:28.231Z,94580.46
2018-11-20T01:00:18.412Z,94583.53
2018-11-20T01:01:08.430Z,94583.26
2018-11-20T01:01:58.421Z,94586.23
2018-11-20T01:02:48.512Z,94580.92
2018-11-20T01:03:39.058Z,94581.36
2018-11-20T01:04:29.472Z,94580.53
2018-11-20T01:05:19.942Z,94576.27
2018-11-20T01:06:10.473Z,94569.09
2018-11-20T01:07:01.159Z,94567.59
2018-11-20T01:07:51.770Z,94570.09
2018-11-20T01:08:42.203Z,94568.13
2018-11-20T01:09:32.702Z,94572.02
2018-11-20T01:10:22.891Z,94565.77
2018-11-20T01:11:13.411Z,94562.92
2018-11-20T01:12:03.548Z,94560.95
2018-11-20T01:12:53.614Z,94559.45
2018-11-20T01:13:43.674Z,94565.62
2018-11-20T01:14:33.853Z,94572.02
2018-11-20T01:15:24.336Z,94569.09
2018-11-20T01:16:14.826Z,94573.13
2018-11-20T01:17:05.266Z,94568.48
2018-11-20T01:17:55.750Z,94570.05
2018-11-20T01:18:46.544Z,94567.28
2018-11-20T01:19:36.727Z,94570.52
2018-11-20T01:20:27.199Z,94573.69
2018-11-20T01:21:17.201Z,94576.52
2018-11-20T01:22:07.514Z,94569.84
2018-11-20T01:22:57.766Z,94576.92
2018-11-20T01:23:47.883Z,94567.77
2018-11-20T01:24:38.362Z,94565.91
2018-11-20T01:25:28.997Z,94561.08
2018-11-20T01:26:19.122Z,94559.84
2018-11-20T01:27:09.217Z,94558.58
2018-11-20T01:27:59.614Z,94555.84
2018-11-20T01:28:49.873Z,94559.34
2018-11-20T01:29:40.023Z,94547.49
2018-11-20T01:30:30.083Z,94544.44
2018-11-20T01:31:20.447Z,94545.50
2018-11-20T01:32:10.855Z,94538.02
2018-11-20T01:33:01.330Z,94542.99
2018-11-20T01:33:52.006Z,94539.16
2018-11-20T01:34:42.083Z,94541.41
2018-11-20T01:35:32.106Z,94543.16
2018-11-20T01:36:22.173Z,94541.13
2018-11-20T01:37:12.260Z,94540.00
2018-11-20T01:38:02.315Z,94540.98
2018-11-20T01:38:52.778Z,94542.55
2018-11-20T01:39:43.468Z,94548.66
2018-11-20T01:40:33.412Z,94545.91
2018-11-20T01:41:24.143Z,94549.82
2018-11-20T01:42:14.151Z,94551.66
2018-11-20T01:43:04.350Z,94552.30
2018-11-20T01:43:54.428Z,94553.16
2018-11-20T01:44:44.495Z,94554.91
2018-11-20T01:45:34.650Z,94557.58
2018-11-20T01:46:25.263Z,94551.40
2018-11-20T01:47:15.670Z,94557.16
2018-11-20T01:48:06.223Z,94545.55
2018-11-20T01:48:57.015Z,94547.39
2018-11-20T01:49:47.297Z,94543.06
2018-11-20T01:50:37.714Z,94543.81
2018-11-20T01:51:28.276Z,94539.66
2018-11-20T01:52:18.963Z,94537.89
2018-11-20T01:53:09.581Z,94537.56
2018-11-20T01:53:59.954Z,94536.55
2018-11-20T01:54:50.503Z,94525.97
2018-11-20T01:55:41.245Z,94526.22
2018-11-20T01:56:31.459Z,94530.23
2018-11-20T01:57:21.780Z,94529.55
2018-11-20T01:58:12.256Z,94531.21
2018-11-20T01:59:02.780Z,94529.06
2018-11-20T01:59:53.416Z,94529.39
2018-11-20T02:00:43.951Z,94528.80
2018-11-20T02:01:34.014Z,94527.61
2018-11-20T02:02:24.496Z,94528.89
2018-11-20T02:03:14.623Z,94525.11
2018-11-20T02:04:04.830Z,94526.23
2018-11-20T02:04:55.286Z,94524.70
2018-11-20T02:05:45.321Z,94522.19
2018-11-20T02:06:35.659Z,94522.38
2018-11-20T02:07:26.208Z,94523.97
2018-11-20T02:08:16.850Z,94531.21
2018-11-20T02:09:07.402Z,94523.85
2018-11-20T02:09:57.851Z,94526.59
2018-11-20T02:10:48.447Z,94528.27
2018-11-20T02:11:39.019Z,94522.39
2018-11-20T02:12:29.396Z,94529.12
2018-11-20T02:13:19.881Z,94518.30
2018-11-20T02:14:10.552Z,94520.19
2018-11-20T02:15:00.709Z,94517.02
2018-11-20T02:15:50.831Z,94512.55
2018-11-20T02:16:40.801Z,94517.30
2018-11-20T02:17:31.466Z,94513.88
2018-11-20T02:18:22.205Z,94510.10
2018-11-20T02:19:12.288Z,94511.70
2018-11-20T02:20:02.782Z,94501.80
2018-11-20T02:20:53.268Z,94503.12
2018-11-20T02:21:43.891Z,94497.20
2018-11-20T02:22:34.352Z,94494.92
2018-11-20T02:23:24.807Z,94500.05
2018-11-20T02:24:14.921Z,94496.19
2018-11-20T02:25:05.129Z,94499.14
2018-11-20T02:25:55.686Z,94498.37
2018-11-20T02:26:46.247Z,94497.17
2018-11-20T02:27:36.801Z,94498.69
2018-11-20T02:28:27.265Z,94500.86
2018-11-20T02:29:17.998Z,94500.36
2018-11-20T02:30:08.540Z,94493.78
2018-11-20T02:30:59.078Z,94491.30
2018-11-20T02:31:49.117Z,94492.68
2018-11-20T02:32:39.803Z,94494.00
2018-11-20T02:33:30.295Z,94496.52
2018-11-20T02:34:20.907Z,94500.38
2018-11-20T02:35:10.988Z,94495.52
2018-11-20T02:36:01.046Z,94498.50
2018-11-20T02:36:51.238Z,94498.91
2018-11-20T02:37:41.361Z,94494.33
2018-11-20T02:38:31.380Z,94492.88
2018-11-20T02:39:21.447Z,94489.87
2018-11-20T02:40:11.819Z,94487.34
2018-11-20T02:41:02.597Z,94487.40
2018-11-20T02:41:53.094Z,94486.92
2018-11-20T02:42:43.056Z,94483.33
2018-11-20T02:43:33.633Z,94482.48
2018-11-20T02:44:24.218Z,94481.51
2018-11-20T02:45:14.301Z,94482.48
2018-11-20T02:46:04.365Z,94486.34
2018-11-20T02:46:54.847Z,94487.47
2018-11-20T02:47:44.906Z,94485.84
2018-11-20T02:48:35.086Z,94483.78
2018-11-20T02:49:25.135Z,94484.16
2018-11-20T02:50:15.687Z,94484.66
2018-11-20T02:51:06.203Z,94482.08
2018-11-20T02:51:56.360Z,94480.16
2018-11-20T02:52:46.878Z,94474.65
2018-11-20T02:53:36.925Z,94471.48
2018-11-20T02:54:26.996Z,94471.12
2018-11-20T02:55:17.046Z,94468.81
2018-11-20T02:56:07.237Z,94469.37
2018-11-20T02:56:57.431Z,94470.80
2018-11-20T02:57:47.818Z,94474.20
2018-11-20T02:58:37.887Z,94476.11
2018-11-20T02:59:28.047Z,94481.08
2018-11-20T03:00:18.758Z,94474.67
2018-11-20T03:01:09.264Z,94481.03
2018-11-20T03:01:59.782Z,94472.38
2018-11-20T03:02:50.281Z,94476.13
2018-11-20T03:03:40.912Z,94474.37
2018-11-20T03:04:31.138Z,94477.28
2018-11-20T03:05:21.184Z,94477.61
2018-11-20T03:06:11.862Z,94474.98
2018-11-20T03:07:02.472Z,94476.81
2018-11-20T03:07:52.871Z,94471.70
2018-11-20T03:08:43.383Z,94476.31
2018-11-20T03:09:33.943Z,94478.11
2018-11-20T03:10:23.924Z,94473.19
2018-11-20T03:11:14.199Z,94471.77
2018-11-20T03:12:04.535Z,94470.14
2018-11-20T03:12:54.656Z,94472.45
2018-11-20T03:13:45.498Z,94466.60
2018-11-20T03:14:36.149Z,94471.94
2018-11-20T03:15:26.647Z,94470.87
2018-11-20T03:16:17.113Z,94471.38
2018-11-20T03:17:07.195Z,94472.35
2018-11-20T03:17:57.661Z,94472.95
2018-11-20T03:18:48.245Z,94472.96
2018-11-20T03:19:38.773Z,94469.95
2018-11-20T03:20:29.120Z,94473.27
2018-11-20T03:21:19.658Z,94481.78
2018-11-20T03:22:09.767Z,94468.23
2018-11-20T03:22:59.861Z,94470.85
2018-11-20T03:23:49.875Z,94466.09
2018-11-20T03:24:39.953Z,94470.14
2018-11-20T03:25:30.033Z,94470.62
2018-11-20T03:26:20.624Z,94473.77
2018-11-20T03:27:11.440Z,94475.93
2018-11-20T03:28:01.594Z,94478.79
2018-11-20T03:28:51.703Z,94478.27
2018-11-20T03:29:42.065Z,94478.11
2018-11-20T03:30:32.176Z,94474.36
2018-11-20T03:31:22.468Z,94478.62
2018-11-20T03:32:12.460Z,94476.12
2018-11-20T03:33:02.843Z,94473.88
2018-11-20T03:33:53.016Z,94476.53
2018-11-20T03:34:43.247Z,94472.05
2018-11-20T03:35:33.251Z,94475.59
2018-11-20T03:36:23.335Z,94471.67
2018-11-20T03:37:13.573Z,94472.38
2018-11-20T03:38:04.186Z,94462.64
2018-11-20T03:38:54.807Z,94464.11
2018-11-20T03:39:44.818Z,94464.23
2018-11-20T03:40:34.900Z,94465.44
2018-11-20T03:41:25.150Z,94464.00
2018-11-20T03:42:15.657Z,94460.27
2018-11-20T03:43:06.053Z,94462.59
2018-11-20T03:43:56.507Z,94460.61
2018-11-20T03:44:47.096Z,94460.78
2018-11-20T03:45:37.784Z,94461.77
2018-11-20T03:46:27.916Z,94458.86
2018-11-20T03:47:18.199Z,94459.02
2018-11-20T03:48:08.588Z,94461.37
2018-11-20T03:48:59.325Z,94458.86
2018-11-20T03:49:49.905Z,94458.38
2018-11-20T03:50:40.205Z,94460.45
2018-11-20T03:51:30.213Z,94461.72
2018-11-20T03:52:20.382Z,94460.36
2018-11-20T03:53:10.488Z,94464.10
2018-11-20T03:54:00.903Z,94461.88
2018-11-20T03:54:51.361Z,94460.77
2018-11-20T03:55:41.777Z,94462.73
2018-11-20T03:56:32.576Z,94458.16
2018-11-20T03:57:23.032Z,94459.37
2018-11-20T03:58:13.526Z,94461.11
2018-11-20T03:59:03.976Z,94465.14
2018-11-20T03:59:54.674Z,94467.42
2018-11-20T04:00:44.778Z,94469.77
2018-11-20T04:01:35.229Z,94463.40
2018-11-20T04:02:25.718Z,94466.92
2018-11-20T04:03:16.248Z,94472.50
2018-11-20T04:04:06.983Z,94473.31
2018-11-20T04:04:57.483Z,94465.83
2018-11-20T04:05:47.994Z,94466.03
2018-11-20T04:06:38.068Z,94459.99
2018-11-20T04:07:28.306Z,94460.47
2018-11-20T04:08:18.863Z,94455.92
2018-11-20T04:09:09.305Z,94455.32
2018-11-20T04:09:59.828Z,94457.66
2018-11-20T04:10:50.418Z,94457.61
2018-11-20T04:11:40.843Z,94459.27
2018-11-20T04:12:31.235Z,94457.03
2018-11-20T04:13:21.790Z,94452.37
2018-11-20T04:14:12.260Z,94456.62
2018-11-20T04:15:02.354Z,94453.69
2018-11-20T04:15:52.423Z,94457.19
2018-11-20T04:16:42.678Z,94450.18
2018-11-20T04:17:33.184Z,94447.73
2018-11-20T04:18:23.377Z,94442.45
2018-11-20T04:19:13.529Z,94446.16
2018-11-20T04:20:03.912Z,94460.80
2018-11-20T04:20:53.890Z,94464.42
2018-11-20T04:21:43.999Z,94462.84
2018-11-20T04:22:34.353Z,94462.94
2018-11-20T04:23:24.854Z,94460.53
2018-11-20T04:24:15.546Z,94458.17
2018-11-20T04:25:06.164Z,94452.55
2018-11-20T04:25:56.705Z,94458.19
2018-11-20T04:26:47.396Z,94448.45
2018-11-20T04:27:37.532Z,94442.83
2018-11-20T04:28:27.863Z,94444.71
2018-11-20T04:29:18.258Z,94446.79
2018-11-20T04:30:09.037Z,94449.17
2018-11-20T04:30:59.067Z,94443.13
2018-11-20T04:31:49.112Z,94440.68
2018-11-20T04:32:39.426Z,94438.73
2018-11-20T04:33:30.007Z,94440.23
2018-11-20T04:34:20.091Z,94437.27
2018-11-20T04:35:10.152Z,94435.91
2018-11-20T04:36:00.396Z,94434.73
2018-11-20T04:36:50.456Z,94433.11
2018-11-20T04:37:41.225Z,94427.94
2018-11-20T04:38:31.730Z,94439.60
2018-11-20T04:39:21.946Z,94435.02
2018-11-20T04:40:12.441Z,94442.55
2018-11-20T04:41:03.081Z,94441.86
2018-11-20T04:41:53.651Z,94432.62
2018-11-20T04:42:44.089Z,94435.28
2018-11-20T04:43:34.133Z,94435.45
2018-11-20T04:44:24.022Z,94431.54
2018-11-20T04:45:14.925Z,94431.20
2018-11-20T04:46:05.316Z,94429.64
2018-11-20T04:46:55.767Z,94429.89
2018-11-20T04:47:46.236Z,94434.70
2018-11-20T04:48:37.016Z,94434.58
2018-11-20T04:49:27.202Z,94436.58
2018-11-20T04:50:17.678Z,94432.09
2018-11-20T04:51:08.113Z,94433.45
2018-11-20T04:51:58.295Z,94438.32
2018-11-20T04:52:48.905Z,94426.75
2018-11-20T04:53:39.085Z,94427.95
2018-11-20T04:54:29.113Z,94425.66
2018-11-20T04:55:19.224Z,94424.27
2018-11-20T04:56:09.882Z,94424.67
2018-11-20T04:56:59.920Z,94424.26
2018-11-20T04:57:50.435Z,94424.78
2018-11-20T04:58:40.893Z,94427.91
2018-11-20T04:59:31.485Z,94429.07
2018-11-20T05:00:21.807Z,94431.09
2018-11-20T05:01:11.909Z,94433.77
2018-11-20T05:02:02.137Z,94425.47
2018-11-20T05:02:52.616Z,94420.70
2018-11-20T05:03:43.446Z,94425.21
2018-11-20T05:04:33.853Z,94425.73
2018-11-20T05:05:23.829Z,94428.98
2018-11-20T05:06:13.865Z,94423.59
2018-11-20T05:07:04.311Z,94427.07
2018-11-20T05:07:54.362Z,94422.84
2018-11-20T05:08:44.765Z,94418.11
2018-11-20T05:09:34.784Z,94421.49
2018-11-20T05:10:25.110Z,94422.45
2018-11-20T05:11:15.285Z,94419.94
2018-11-20T05:12:05.653Z,94421.75
2018-11-20T05:12:56.105Z,94419.59
2018-11-20T05:13:46.396Z,94419.50
2018-11-20T05:14:36.388Z,94415.78
2018-11-20T05:15:26.913Z,94416.67
2018-11-20T05:16:17.424Z,94415.34
2018-11-20T05:17:07.871Z,94416.10
2018-11-20T05:17:58.574Z,94415.50
2018-11-20T05:18:49.233Z,94423.92
2018-11-20T05:19:39.785Z,94416.91
2018-11-20T05:20:30.269Z,94423.06
2018-11-20T05:21:20.532Z,94417.09
2018-11-20T05:22:11.048Z,94419.50
2018-11-20T05:23:01.844Z,94422.56
2018-11-20T05:23:51.839Z,94420.27
2018-11-20T05:24:41.892Z,94420.92
2018-11-20T05:25:31.952Z,94419.45
2018-11-20T05:26:22.659Z,94420.34
2018-11-20T05:27:12.834Z,94423.99
2018-11-20T05:28:03.451Z,94421.95
2018-11-20T05:28:53.890Z,94418.86
2018-11-20T05:29:44.479Z,94416.23
2018-11-20T05:30:34.825Z,94415.14
2018-11-20T05:31:25.295Z,94413.37
2018-11-20T05:32:15.970Z,94414.53
2018-11-20T05:33:06.063Z,94413.99
2018-11-20T05:33:56.609Z,94409.07
2018-11-20T05:34:46.760Z,94411.22
2018-11-20T05:35:37.184Z,94414.41
2018-11-20T05:36:27.969Z,94418.23
2018-11-20T05:37:18.215Z,94412.84
2018-11-20T05:38:08.396Z,94411.98
2018-11-20T05:38:58.474Z,94412.76
2018-11-20T05:39:49.022Z,94414.22
2018-11-20T05:40:39.415Z,94418.30
2018-11-20T05:41:29.981Z,94417.02
2018-11-20T05:42:20.705Z,94415.19
2018-11-20T05:43:11.252Z,94418.19
2018-11-20T05:44:01.762Z,94414.75
2018-11-20T05:44:52.386Z,94414.09
2018-11-20T05:45:43.026Z,94417.41
2018-11-20T05:46:33.082Z,94418.31
2018-11-20T05:47:23.219Z,94416.67
2018-11-20T05:48:14.075Z,94418.55
2018-11-20T05:49:04.648Z,94413.33
2018-11-20T05:49:54.878Z,94409.16
2018-11-20T05:50:45.421Z,94409.47
2018-11-20T05:51:35.497Z,94409.59
2018-11-20T05:52:26.043Z,94413.13
2018-11-20T05:53:16.565Z,94406.91
2018-11-20T05:54:07.044Z,94410.23
2018-11-20T05:54:57.534Z,94407.24
2018-11-20T05:55:47.749Z,94402.98
2018-11-20T05:56:38.358Z,94402.79
2018-11-20T05:57:28.364Z,94401.34
2018-11-20T05:58:18.934Z,94398.02
2018-11-20T05:59:09.497Z,94393.55
2018-11-20T06:00:00.171Z,94401.38
2018-11-20T06:00:50.309Z,94411.56
2018-11-20T06:01:43.382Z,94407.20
2018-11-20T06:02:31.301Z,94401.73
2018-11-20T06:03:21.985Z,94401.55
2018-11-20T06:04:12.322Z,94397.81
2018-11-20T06:05:02.435Z,94395.95
2018-11-20T06:05:52.885Z,94395.58
2018-11-20T06:06:43.067Z,94399.09
2018-11-20T06:07:33.401Z,94384.08
2018-11-20T06:09:33.300Z,94383.77
2018-11-20T06:10:23.918Z,94381.31
2018-11-20T06:11:14.577Z,94386.70
2018-11-20T06:12:05.090Z,94384.95
2018-11-20T06:12:55.179Z,94376.52
2018-11-20T06:13:45.894Z,94372.52
2018-11-20T06:14:36.044Z,94371.69
2018-11-20T06:15:26.093Z,94377.28
2018-11-20T06:16:16.131Z,94374.30
2018-11-20T06:17:06.764Z,94375.23
2018-11-20T06:17:57.656Z,94376.06
2018-11-20T06:18:47.764Z,94372.70
2018-11-20T06:19:37.844Z,94373.12
2018-11-20T06:20:28.126Z,94373.52
2018-11-20T06:21:18.304Z,94370.86
2018-11-20T06:22:08.757Z,94370.77
2018-11-20T06:22:59.207Z,94374.66
2018-11-20T06:23:49.735Z,94373.49
2018-11-20T06:24:40.006Z,94370.38
2018-11-20T06:25:30.093Z,94375.37
2018-11-20T06:26:20.347Z,94373.20
2018-11-20T06:27:10.783Z,94375.86
2018-11-20T06:28:00.891Z,94374.86
2018-11-20T06:28:51.383Z,94383.20
2018-11-20T06:29:41.441Z,94381.34
2018-11-20T06:30:31.712Z,94381.08
2018-11-20T06:31:21.736Z,94380.44
2018-11-20T06:32:12.236Z,94382.13
2018-11-20T06:33:02.827Z,94380.88
2018-11-20T06:33:53.365Z,94382.73
2018-11-20T06:34:43.988Z,94380.56
2018-11-20T06:35:34.040Z,94380.98
2018-11-20T06:36:24.411Z,94386.14
2018-11-20T06:37:14.592Z,94388.21
2018-11-20T06:38:05.077Z,94388.90
2018-11-20T06:38:55.144Z,94390.06
2018-11-20T06:39:45.177Z,94388.97
2018-11-20T06:40:35.343Z,94392.38
2018-11-20T06:41:25.797Z,94387.49
2018-11-20T06:42:16.085Z,94398.38
2018-11-20T06:43:06.437Z,94393.47
2018-11-20T06:43:56.628Z,94391.73
2018-11-20T06:44:46.995Z,94385.38
2018-11-20T06:45:37.140Z,94388.05
2018-11-20T06:46:27.073Z,94391.72
2018-11-20T06:47:17.156Z,94393.88
2018-11-20T06:48:07.802Z,94392.47
2018-11-20T06:48:57.834Z,94397.21
2018-11-20T06:49:47.952Z,94392.83
2018-11-20T06:50:38.222Z,94396.91
2018-11-20T06:51:28.418Z,94390.99
2018-11-20T06:52:18.986Z,94391.25
2018-11-20T06:53:09.648Z,94390.64
2018-11-20T06:53:59.637Z,94391.06
2018-11-20T06:54:50.178Z,94390.97
2018-11-20T06:55:40.564Z,94390.16
2018-11-20T06:56:30.655Z,94389.83
2018-11-20T06:57:20.825Z,94390.90
2018-11-20T06:58:10.768Z,94388.59
2018-11-20T06:59:01.147Z,94390.66
2018-11-20T06:59:51.798Z,94389.88
2018-11-20T07:00:41.848Z,94387.47
2018-11-20T07:01:31.931Z,94383.23
2018-11-20T07:02:21.984Z,94389.84
2018-11-20T07:03:12.504Z,94386.84
2018-11-20T07:04:02.644Z,94386.73
2018-11-20T07:04:52.699Z,94387.25
2018-11-20T07:05:43.254Z,94387.23
2018-11-20T07:06:33.349Z,94388.14
2018-11-20T07:07:23.694Z,94381.17
2018-11-20T07:08:14.332Z,94380.80
2018-11-20T07:09:04.233Z,94379.58
2018-11-20T07:09:54.527Z,94381.92
2018-11-20T07:10:44.933Z,94388.44
2018-11-20T07:11:35.505Z,94386.83
2018-11-20T07:12:25.550Z,94387.49
2018-11-20T07:13:15.856Z,94389.59
2018-11-20T07:14:06.437Z,94393.49
2018-11-20T07:14:57.076Z,94391.75
2018-11-20T07:15:48.022Z,94386.06
2018-11-20T07:16:38.014Z,94385.84
2018-11-20T07:17:28.069Z,94390.77
2018-11-20T07:18:18.501Z,94387.27
2018-11-20T07:19:09.037Z,94391.44
2018-11-20T07:19:59.611Z,94389.27
2018-11-20T07:20:49.720Z,94387.09
2018-11-20T07:21:40.115Z,94389.42
2018-11-20T07:22:30.980Z,94392.68
2018-11-20T07:23:21.006Z,94394.23
2018-11-20T07:24:11.518Z,94397.65
2018-11-20T07:25:01.694Z,94403.48
2018-11-20T07:25:51.971Z,94405.91
2018-11-20T07:26:42.068Z,94413.83
2018-11-20T07:27:32.164Z,94398.97
2018-11-20T07:28:22.212Z,94409.23
2018-11-20T07:29:12.403Z,94406.72
2018-11-20T07:30:02.802Z,94405.47
2018-11-20T07:30:53.395Z,94404.32
2018-11-20T07:31:43.460Z,94397.55
2018-11-20T07:32:34.008Z,94404.39
2018-11-20T07:33:24.468Z,94402.06
2018-11-20T07:34:15.130Z,94406.56
2018-11-20T07:35:05.683Z,94400.22
2018-11-20T07:35:56.223Z,94408.38
2018-11-20T07:36:46.815Z,94400.76
2018-11-20T07:37:37.078Z,94396.20
2018-11-20T07:38:27.603Z,94397.92
2018-11-20T07:39:17.512Z,94405.78
2018-11-20T07:40:07.619Z,94411.26
2018-11-20T07:40:58.064Z,94407.80
2018-11-20T07:41:48.756Z,94404.81
2018-11-20T07:42:38.783Z,94402.54
2018-11-20T07:43:28.917Z,94414.98
2018-11-20T07:44:19.041Z,94405.07
2018-11-20T07:45:09.808Z,94407.76
2018-11-20T07:46:00.349Z,94403.47
2018-11-20T07:46:50.832Z,94403.97
2018-11-20T07:47:41.270Z,94408.50
2018-11-20T07:48:31.382Z,94399.97
2018-11-20T07:49:21.396Z,94405.92
2018-11-20T07:50:11.407Z,94400.23
2018-11-20T07:51:01.466Z,94412.19
2018-11-20T07:51:51.718Z,94401.47
2018-11-20T07:52:41.897Z,94399.27
2018-11-20T07:53:32.469Z,94402.64
2018-11-20T07:54:22.638Z,94395.23
2018-11-20T07:55:13.396Z,94390.89
2018-11-20T07:56:03.535Z,94385.98
2018-11-20T07:56:53.847Z,94388.77
2018-11-20T07:57:43.952Z,94388.39
2018-11-20T07:58:33.916Z,94387.65
2018-11-20T07:59:24.538Z,94382.24
2018-11-20T08:00:15.041Z,94388.12
2018-11-20T08:01:05.565Z,94381.77
2018-11-20T08:01:56.167Z,94379.12
2018-11-20T08:02:46.125Z,94380.81
2018-11-20T08:03:36.595Z,94380.41
2018-11-20T08:04:27.440Z,94376.84
2018-11-20T08:05:17.464Z,94379.01
2018-11-20T08:06:07.932Z,94379.94
2018-11-20T08:06:58.387Z,94373.77
2018-11-20T08:07:48.551Z,94373.79
2018-11-20T08:08:39.042Z,94381.41
2018-11-20T08:09:29.499Z,94378.98
2018-11-20T08:10:19.941Z,94374.94
2018-11-20T08:11:10.458Z,94371.77
2018-11-20T08:12:01.036Z,94370.55
2018-11-20T08:12:51.018Z,94368.40
2018-11-20T08:13:41.042Z,94364.77
2018-11-20T08:14:31.729Z,94364.11
2018-11-20T08:15:22.382Z,94358.51
2018-11-20T08:16:12.443Z,94354.27
2018-11-20T08:17:02.974Z,94353.35
2018-11-20T08:17:53.775Z,94350.03
2018-11-20T08:18:44.388Z,94347.86
2018-11-20T08:19:34.962Z,94354.92
2018-11-20T08:20:25.432Z,94354.09
2018-11-20T08:21:15.983Z,94360.77
2018-11-20T08:22:06.066Z,94356.26
2018-11-20T08:22:56.318Z,94357.69
2018-11-20T08:23:46.777Z,94355.27
2018-11-20T08:24:37.305Z,94357.09
2018-11-20T08:25:27.420Z,94363.27
2018-11-20T08:26:18.131Z,94358.38
2018-11-20T08:27:08.138Z,94362.45
2018-11-20T08:27:58.271Z,94362.92
2018-11-20T08:28:48.889Z,94364.93
2018-11-20T08:29:38.851Z,94364.93
2018-11-20T08:30:28.968Z,94362.36
2018-11-20T08:31:19.402Z,94371.09
2018-11-20T08:32:09.471Z,94377.77
2018-11-20T08:32:59.613Z,94372.18
2018-11-20T08:33:50.219Z,94377.52
2018-11-20T08:34:40.798Z,94377.10
2018-11-20T08:35:30.856Z,94384.41
2018-11-20T08:36:21.329Z,94377.31
2018-11-20T08:37:11.925Z,94387.70
2018-11-20T08:38:02.013Z,94378.36
2018-11-20T08:38:52.436Z,94382.52
2018-11-20T08:39:42.467Z,94380.27
2018-11-20T08:40:32.908Z,94383.67
2018-11-20T08:41:23.689Z,94385.19
2018-11-20T08:42:14.285Z,94386.48
2018-11-20T08:43:04.717Z,94387.84
2018-11-20T08:43:55.266Z,94391.67
2018-11-20T08:44:45.816Z,94393.03
2018-11-20T08:45:36.437Z,94392.41
2018-11-20T08:46:26.887Z,94393.00
2018-11-20T08:47:17.432Z,94386.09
2018-11-20T08:48:08.038Z,94384.86
2018-11-20T08:48:58.228Z,94382.76
2018-11-20T08:49:48.359Z,94380.78
2018-11-20T08:50:38.297Z,94380.70
2018-11-20T08:51:28.364Z,94381.14
2018-11-20T08:52:18.985Z,94378.95
2018-11-20T08:53:09.140Z,94379.94
2018-11-20T08:53:59.657Z,94379.73
2018-11-20T08:54:49.669Z,94381.11
2018-11-20T08:55:39.809Z,94379.94
2018-11-20T08:56:30.351Z,94379.22
2018-11-20T08:57:20.569Z,94374.02
2018-11-20T08:58:10.649Z,94380.92
2018-11-20T08:59:01.150Z,94383.41
2018-11-20T08:59:51.155Z,94375.98
2018-11-20T09:00:41.303Z,94386.70
2018-11-20T09:01:31.441Z,94383.80
2018-11-20T09:02:22.210Z,94385.81
2018-11-20T09:03:12.617Z,94389.17
2018-11-20T09:04:03.139Z,94396.38
2018-11-20T09:04:53.191Z,94390.45
2018-11-20T09:05:43.342Z,94382.77
2018-11-20T09:06:34.029Z,94388.59
2018-11-20T09:07:24.060Z,94389.94
2018-11-20T09:08:14.434Z,94395.45
2018-11-20T09:09:04.566Z,94393.56
2018-11-20T09:09:54.652Z,94400.47
2018-11-20T09:10:44.668Z,94400.53
2018-11-20T09:11:35.360Z,94403.02
2018-11-20T09:12:25.874Z,94399.64
2018-11-20T09:13:16.452Z,94398.34
2018-11-20T09:14:06.783Z,94406.68
2018-11-20T09:14:56.786Z,94401.02
2018-11-20T09:15:47.431Z,94396.22
2018-11-20T09:16:37.920Z,94403.12
2018-11-20T09:17:28.377Z,94400.98
2018-11-20T09:18:18.498Z,94403.70
2018-11-20T09:19:08.909Z,94398.51
2018-11-20T09:19:59.492Z,94402.94
2018-11-20T09:20:50.271Z,94406.16
2018-11-20T09:21:40.348Z,94405.87
2018-11-20T09:22:30.334Z,94407.88
2018-11-20T09:23:20.876Z,94405.39
2018-11-20T09:24:11.530Z,94400.44
2018-11-20T09:25:01.689Z,94406.09
2018-11-20T09:25:52.258Z,94404.23
2018-11-20T09:26:42.799Z,94405.52
2018-11-20T09:27:33.482Z,94400.95
2018-11-20T09:28:23.449Z,94403.33
2018-11-20T09:29:13.562Z,94408.81
2018-11-20T09:30:03.564Z,94403.59
2018-11-20T09:30:53.756Z,94405.97
2018-11-20T09:31:43.889Z,94407.42
2018-11-20T09:32:34.211Z,94409.27
2018-11-20T09:33:24.281Z,94401.73
2018-11-20T09:34:14.506Z,94406.03
2018-11-20T09:35:05.186Z,94409.30
2018-11-20T09:35:55.569Z,94402.60
2018-11-20T09:36:45.696Z,94406.62
2018-11-20T09:37:36.170Z,94406.39
2018-11-20T09:38:26.972Z,94403.21
2018-11-20T09:39:17.559Z,94395.95
2018-11-20T09:40:07.584Z,94392.41
2018-11-20T09:40:57.612Z,94397.34
2018-11-20T09:41:48.128Z,94387.65
2018-11-20T09:42:38.201Z,94386.94
2018-11-20T09:43:28.700Z,94387.82
2018-11-20T09:44:19.196Z,94385.81
2018-11-20T09:45:09.523Z,94389.88
2018-11-20T09:46:00.307Z,94393.32
2018-11-20T09:46:50.402Z,94387.12
2018-11-20T09:47:41.038Z,94391.73
2018-11-20T09:48:31.135Z,94386.47
2018-11-20T09:49:21.759Z,94382.13
2018-11-20T09:50:11.971Z,94376.95
2018-11-20T09:51:02.276Z,94371.31
2018-11-20T09:51:52.260Z,94373.09
2018-11-20T09:52:42.375Z,94369.56